sensor_id;sensor_type;location;lat;lon;timestamp;P1;durP1;ratioP1;P2;durP2;ratioP2
4839;SDS011;2434;48.486;7.964;2023-10-19T00:02:46;22.93;;;16.63;;
4839;SDS011;2434;48.486;7.964;2023-10-19T00:05:17;24.77;;;17.67;;
4839;SDS011;2434;48.486;7.964;2023-10-19T00:07:46;21.10;;;15.90;;
4839;SDS011;2434;48.486;7.964;2023-10-19T00:10:16;22.17;;;16.10;;
4839;SDS011;2434;48.486;7.964;2023-10-19T00:12:45;26.70;;;16.87;;
4839;SDS011;2434;48.486;7.964;2023-10-19T00:15:23;24.23;;;16.47;;
4839;SDS011;2434;48.486;7.964;2023-10-19T00:17:52;24.00;;;16.67;;
4839;SDS011;2434;48.486;7.964;2023-10-19T00:20:21;24.20;;;17.10;;
4839;SDS011;2434;48.486;7.964;2023-10-19T00:23:01;22.63;;;16.63;;
4839;SDS011;2434;48.486;7.964;2023-10-19T00:25:32;23.23;;;16.00;;
4839;SDS011;2434;48.486;7.964;2023-10-19T00:28:02;23.73;;;16.87;;
4839;SDS011;2434;48.486;7.964;2023-10-19T00:30:31;18.93;;;13.93;;
4839;SDS011;2434;48.486;7.964;2023-10-19T00:33:02;20.37;;;15.07;;
4839;SDS011;2434;48.486;7.964;2023-10-19T00:35:33;24.07;;;16.17;;
4839;SDS011;2434;48.486;7.964;2023-10-19T00:38:02;22.30;;;17.40;;
4839;SDS011;2434;48.486;7.964;2023-10-19T00:40:53;24.07;;;18.30;;
4839;SDS011;2434;48.486;7.964;2023-10-19T00:43:27;23.60;;;18.07;;
4839;SDS011;2434;48.486;7.964;2023-10-19T00:45:59;24.77;;;17.37;;
4839;SDS011;2434;48.486;7.964;2023-10-19T00:48:29;28.50;;;17.70;;
4839;SDS011;2434;48.486;7.964;2023-10-19T00:50:58;26.87;;;18.57;;
4839;SDS011;2434;48.486;7.964;2023-10-19T00:53:36;23.53;;;17.67;;
4839;SDS011;2434;48.486;7.964;2023-10-19T00:56:06;26.17;;;17.40;;
4839;SDS011;2434;48.486;7.964;2023-10-19T00:58:37;28.30;;;17.73;;
4839;SDS011;2434;48.486;7.964;2023-10-19T01:01:08;22.97;;;16.67;;
4839;SDS011;2434;48.486;7.964;2023-10-19T01:03:36;26.47;;;17.07;;
4839;SDS011;2434;48.486;7.964;2023-10-19T01:06:05;23.40;;;16.40;;
4839;SDS011;2434;48.486;7.964;2023-10-19T01:08:39;21.43;;;15.70;;
4839;SDS011;2434;48.486;7.964;2023-10-19T01:11:09;22.70;;;16.20;;
4839;SDS011;2434;48.486;7.964;2023-10-19T01:13:42;22.27;;;16.10;;
4839;SDS011;2434;48.486;7.964;2023-10-19T01:16:13;26.37;;;17.40;;
4839;SDS011;2434;48.486;7.964;2023-10-19T01:18:49;22.67;;;16.10;;
4839;SDS011;2434;48.486;7.964;2023-10-19T01:21:21;20.37;;;14.93;;
4839;SDS011;2434;48.486;7.964;2023-10-19T01:23:55;25.93;;;17.80;;
4839;SDS011;2434;48.486;7.964;2023-10-19T01:26:24;28.53;;;17.50;;
4839;SDS011;2434;48.486;7.964;2023-10-19T01:28:53;23.73;;;16.70;;
4839;SDS011;2434;48.486;7.964;2023-10-19T01:31:27;23.27;;;15.60;;
4839;SDS011;2434;48.486;7.964;2023-10-19T01:34:05;22.10;;;15.60;;
4839;SDS011;2434;48.486;7.964;2023-10-19T01:36:35;32.13;;;15.87;;
4839;SDS011;2434;48.486;7.964;2023-10-19T01:39:10;21.20;;;16.27;;
4839;SDS011;2434;48.486;7.964;2023-10-19T01:41:38;20.67;;;14.27;;
4839;SDS011;2434;48.486;7.964;2023-10-19T01:44:08;17.10;;;13.97;;
4839;SDS011;2434;48.486;7.964;2023-10-19T01:46:40;21.90;;;15.87;;
4839;SDS011;2434;48.486;7.964;2023-10-19T01:49:10;20.10;;;15.30;;
4839;SDS011;2434;48.486;7.964;2023-10-19T01:51:37;22.03;;;15.40;;
4839;SDS011;2434;48.486;7.964;2023-10-19T01:54:07;18.47;;;13.67;;
4839;SDS011;2434;48.486;7.964;2023-10-19T01:56:36;18.10;;;14.47;;
4839;SDS011;2434;48.486;7.964;2023-10-19T01:59:05;23.83;;;14.60;;
4839;SDS011;2434;48.486;7.964;2023-10-19T02:01:34;21.83;;;14.20;;
4839;SDS011;2434;48.486;7.964;2023-10-19T02:04:05;21.37;;;13.70;;
4839;SDS011;2434;48.486;7.964;2023-10-19T02:06:42;18.37;;;12.60;;
4839;SDS011;2434;48.486;7.964;2023-10-19T02:09:14;21.50;;;14.13;;
4839;SDS011;2434;48.486;7.964;2023-10-19T02:11:44;17.20;;;14.13;;
4839;SDS011;2434;48.486;7.964;2023-10-19T02:14:15;19.37;;;13.40;;
4839;SDS011;2434;48.486;7.964;2023-10-19T02:16:45;16.27;;;12.90;;
4839;SDS011;2434;48.486;7.964;2023-10-19T02:19:18;18.23;;;14.30;;
4839;SDS011;2434;48.486;7.964;2023-10-19T02:21:47;15.93;;;13.10;;
4839;SDS011;2434;48.486;7.964;2023-10-19T02:24:17;16.70;;;12.23;;
4839;SDS011;2434;48.486;7.964;2023-10-19T02:26:45;21.10;;;13.83;;
4839;SDS011;2434;48.486;7.964;2023-10-19T02:29:14;19.07;;;13.30;;
4839;SDS011;2434;48.486;7.964;2023-10-19T02:31:41;16.20;;;11.50;;
4839;SDS011;2434;48.486;7.964;2023-10-19T02:34:11;13.60;;;11.57;;
4839;SDS011;2434;48.486;7.964;2023-10-19T02:36:42;13.90;;;11.77;;
4839;SDS011;2434;48.486;7.964;2023-10-19T02:39:12;18.83;;;11.83;;
4839;SDS011;2434;48.486;7.964;2023-10-19T02:41:43;17.80;;;10.50;;
4839;SDS011;2434;48.486;7.964;2023-10-19T02:44:12;14.80;;;11.60;;
4839;SDS011;2434;48.486;7.964;2023-10-19T02:46:46;17.70;;;12.80;;
4839;SDS011;2434;48.486;7.964;2023-10-19T02:49:17;15.43;;;12.40;;
4839;SDS011;2434;48.486;7.964;2023-10-19T02:51:47;17.37;;;12.40;;
4839;SDS011;2434;48.486;7.964;2023-10-19T02:54:16;14.23;;;12.00;;
4839;SDS011;2434;48.486;7.964;2023-10-19T02:56:47;14.00;;;11.57;;
4839;SDS011;2434;48.486;7.964;2023-10-19T02:59:18;13.87;;;11.27;;
4839;SDS011;2434;48.486;7.964;2023-10-19T03:01:49;13.40;;;10.73;;
4839;SDS011;2434;48.486;7.964;2023-10-19T03:04:18;15.37;;;11.73;;
4839;SDS011;2434;48.486;7.964;2023-10-19T03:06:47;19.07;;;11.53;;
4839;SDS011;2434;48.486;7.964;2023-10-19T03:09:16;15.10;;;11.73;;
4839;SDS011;2434;48.486;7.964;2023-10-19T03:11:56;13.93;;;11.97;;
4839;SDS011;2434;48.486;7.964;2023-10-19T03:14:29;13.50;;;10.87;;
4839;SDS011;2434;48.486;7.964;2023-10-19T03:16:58;14.53;;;11.87;;
4839;SDS011;2434;48.486;7.964;2023-10-19T03:19:27;17.10;;;12.13;;
4839;SDS011;2434;48.486;7.964;2023-10-19T03:21:54;13.77;;;10.83;;
4839;SDS011;2434;48.486;7.964;2023-10-19T03:24:26;15.30;;;11.40;;
4839;SDS011;2434;48.486;7.964;2023-10-19T03:27:03;14.00;;;10.43;;
4839;SDS011;2434;48.486;7.964;2023-10-19T03:29:39;13.97;;;12.13;;
4839;SDS011;2434;48.486;7.964;2023-10-19T03:32:12;13.37;;;10.10;;
4839;SDS011;2434;48.486;7.964;2023-10-19T03:34:41;19.93;;;11.00;;
4839;SDS011;2434;48.486;7.964;2023-10-19T03:37:12;13.80;;;11.10;;
4839;SDS011;2434;48.486;7.964;2023-10-19T03:39:41;16.07;;;10.87;;
4839;SDS011;2434;48.486;7.964;2023-10-19T03:42:13;27.53;;;10.87;;
4839;SDS011;2434;48.486;7.964;2023-10-19T03:44:41;16.80;;;11.27;;
4839;SDS011;2434;48.486;7.964;2023-10-19T03:47:16;12.73;;;11.30;;
4839;SDS011;2434;48.486;7.964;2023-10-19T03:49:47;16.40;;;12.63;;
4839;SDS011;2434;48.486;7.964;2023-10-19T03:52:17;13.73;;;11.60;;
4839;SDS011;2434;48.486;7.964;2023-10-19T03:54:48;13.10;;;10.83;;
4839;SDS011;2434;48.486;7.964;2023-10-19T03:57:18;14.03;;;11.63;;
4839;SDS011;2434;48.486;7.964;2023-10-19T03:59:51;16.07;;;11.87;;
4839;SDS011;2434;48.486;7.964;2023-10-19T04:02:23;14.60;;;10.07;;
4839;SDS011;2434;48.486;7.964;2023-10-19T04:04:53;14.60;;;10.13;;
4839;SDS011;2434;48.486;7.964;2023-10-19T04:07:22;13.20;;;9.80;;
4839;SDS011;2434;48.486;7.964;2023-10-19T04:09:53;12.33;;;9.03;;
4839;SDS011;2434;48.486;7.964;2023-10-19T04:12:32;12.70;;;9.80;;
4839;SDS011;2434;48.486;7.964;2023-10-19T04:15:02;21.40;;;9.80;;
4839;SDS011;2434;48.486;7.964;2023-10-19T04:17:37;14.90;;;9.73;;
4839;SDS011;2434;48.486;7.964;2023-10-19T04:20:07;12.57;;;9.90;;
4839;SDS011;2434;48.486;7.964;2023-10-19T04:22:52;14.00;;;10.57;;
4839;SDS011;2434;48.486;7.964;2023-10-19T04:25:21;13.40;;;10.00;;
4839;SDS011;2434;48.486;7.964;2023-10-19T04:27:54;13.57;;;9.17;;
4839;SDS011;2434;48.486;7.964;2023-10-19T04:30:24;12.23;;;8.17;;
4839;SDS011;2434;48.486;7.964;2023-10-19T04:32:52;10.33;;;8.30;;
4839;SDS011;2434;48.486;7.964;2023-10-19T04:35:24;13.23;;;8.90;;
4839;SDS011;2434;48.486;7.964;2023-10-19T04:37:56;11.90;;;9.33;;
4839;SDS011;2434;48.486;7.964;2023-10-19T04:40:24;12.33;;;9.20;;
4839;SDS011;2434;48.486;7.964;2023-10-19T04:42:54;12.57;;;9.50;;
4839;SDS011;2434;48.486;7.964;2023-10-19T04:45:22;11.23;;;9.63;;
4839;SDS011;2434;48.486;7.964;2023-10-19T04:47:50;13.07;;;8.50;;
4839;SDS011;2434;48.486;7.964;2023-10-19T04:50:21;11.90;;;9.80;;
4839;SDS011;2434;48.486;7.964;2023-10-19T04:52:49;11.97;;;8.90;;
4839;SDS011;2434;48.486;7.964;2023-10-19T04:55:17;12.30;;;9.37;;
4839;SDS011;2434;48.486;7.964;2023-10-19T04:57:46;13.83;;;9.43;;
4839;SDS011;2434;48.486;7.964;2023-10-19T05:00:16;15.30;;;9.30;;
4839;SDS011;2434;48.486;7.964;2023-10-19T05:02:47;10.93;;;9.57;;
4839;SDS011;2434;48.486;7.964;2023-10-19T05:05:18;10.60;;;8.90;;
4839;SDS011;2434;48.486;7.964;2023-10-19T05:07:46;11.83;;;7.97;;
4839;SDS011;2434;48.486;7.964;2023-10-19T05:10:15;12.57;;;9.80;;
4839;SDS011;2434;48.486;7.964;2023-10-19T05:12:43;10.87;;;9.30;;
4839;SDS011;2434;48.486;7.964;2023-10-19T05:15:11;16.43;;;12.50;;
4839;SDS011;2434;48.486;7.964;2023-10-19T05:17:40;12.70;;;11.37;;
4839;SDS011;2434;48.486;7.964;2023-10-19T05:20:09;13.90;;;12.20;;
4839;SDS011;2434;48.486;7.964;2023-10-19T05:22:37;12.30;;;10.23;;
4839;SDS011;2434;48.486;7.964;2023-10-19T05:25:06;12.30;;;10.30;;
4839;SDS011;2434;48.486;7.964;2023-10-19T05:27:35;12.87;;;10.60;;
4839;SDS011;2434;48.486;7.964;2023-10-19T05:30:05;14.17;;;10.00;;
4839;SDS011;2434;48.486;7.964;2023-10-19T05:32:36;11.60;;;10.33;;
4839;SDS011;2434;48.486;7.964;2023-10-19T05:35:06;13.87;;;9.93;;
4839;SDS011;2434;48.486;7.964;2023-10-19T05:37:39;10.37;;;8.80;;
4839;SDS011;2434;48.486;7.964;2023-10-19T05:40:08;13.47;;;9.73;;
4839;SDS011;2434;48.486;7.964;2023-10-19T05:42:41;12.03;;;8.90;;
4839;SDS011;2434;48.486;7.964;2023-10-19T05:45:09;11.63;;;8.67;;
4839;SDS011;2434;48.486;7.964;2023-10-19T05:47:39;11.30;;;9.40;;
4839;SDS011;2434;48.486;7.964;2023-10-19T05:50:09;12.33;;;9.27;;
4839;SDS011;2434;48.486;7.964;2023-10-19T05:52:40;14.90;;;9.70;;
4839;SDS011;2434;48.486;7.964;2023-10-19T05:55:09;13.40;;;9.60;;
4839;SDS011;2434;48.486;7.964;2023-10-19T05:57:38;12.23;;;9.10;;
4839;SDS011;2434;48.486;7.964;2023-10-19T06:00:08;11.60;;;8.80;;
4839;SDS011;2434;48.486;7.964;2023-10-19T06:02:40;15.43;;;9.53;;
4839;SDS011;2434;48.486;7.964;2023-10-19T06:05:13;12.40;;;8.53;;
4839;SDS011;2434;48.486;7.964;2023-10-19T06:07:43;11.77;;;8.83;;
4839;SDS011;2434;48.486;7.964;2023-10-19T06:10:12;16.00;;;8.83;;
4839;SDS011;2434;48.486;7.964;2023-10-19T06:12:44;12.00;;;8.70;;
4839;SDS011;2434;48.486;7.964;2023-10-19T06:15:12;12.20;;;8.80;;
4839;SDS011;2434;48.486;7.964;2023-10-19T06:17:41;21.50;;;10.70;;
4839;SDS011;2434;48.486;7.964;2023-10-19T06:20:14;13.70;;;10.37;;
4839;SDS011;2434;48.486;7.964;2023-10-19T06:22:53;15.37;;;11.63;;
4839;SDS011;2434;48.486;7.964;2023-10-19T06:25:23;17.60;;;13.60;;
4839;SDS011;2434;48.486;7.964;2023-10-19T06:27:52;18.27;;;12.17;;
4839;SDS011;2434;48.486;7.964;2023-10-19T06:30:23;22.17;;;15.53;;
4839;SDS011;2434;48.486;7.964;2023-10-19T06:32:52;23.03;;;17.83;;
4839;SDS011;2434;48.486;7.964;2023-10-19T06:35:23;30.93;;;21.80;;
4839;SDS011;2434;48.486;7.964;2023-10-19T06:37:52;32.03;;;23.50;;
4839;SDS011;2434;48.486;7.964;2023-10-19T06:40:21;34.50;;;26.10;;
4839;SDS011;2434;48.486;7.964;2023-10-19T06:42:49;45.13;;;28.47;;
4839;SDS011;2434;48.486;7.964;2023-10-19T06:45:18;47.10;;;31.63;;
4839;SDS011;2434;48.486;7.964;2023-10-19T06:47:46;44.37;;;30.83;;
4839;SDS011;2434;48.486;7.964;2023-10-19T06:50:16;44.57;;;31.40;;
4839;SDS011;2434;48.486;7.964;2023-10-19T06:52:47;39.83;;;29.50;;
4839;SDS011;2434;48.486;7.964;2023-10-19T06:55:16;43.30;;;30.90;;
4839;SDS011;2434;48.486;7.964;2023-10-19T06:57:47;42.57;;;30.10;;
4839;SDS011;2434;48.486;7.964;2023-10-19T07:00:17;36.70;;;26.77;;
4839;SDS011;2434;48.486;7.964;2023-10-19T07:02:47;33.63;;;24.10;;
4839;SDS011;2434;48.486;7.964;2023-10-19T07:05:17;30.90;;;23.37;;
4839;SDS011;2434;48.486;7.964;2023-10-19T07:07:49;31.60;;;23.23;;
4839;SDS011;2434;48.486;7.964;2023-10-19T07:10:21;31.53;;;24.77;;
4839;SDS011;2434;48.486;7.964;2023-10-19T07:12:51;30.80;;;21.70;;
4839;SDS011;2434;48.486;7.964;2023-10-19T07:15:20;35.50;;;24.50;;
4839;SDS011;2434;48.486;7.964;2023-10-19T07:17:51;30.40;;;23.30;;
4839;SDS011;2434;48.486;7.964;2023-10-19T07:20:21;37.60;;;25.10;;
4839;SDS011;2434;48.486;7.964;2023-10-19T07:22:53;34.57;;;22.43;;
4839;SDS011;2434;48.486;7.964;2023-10-19T07:25:22;31.00;;;22.57;;
4839;SDS011;2434;48.486;7.964;2023-10-19T07:27:52;29.53;;;22.80;;
4839;SDS011;2434;48.486;7.964;2023-10-19T07:30:21;31.17;;;22.17;;
4839;SDS011;2434;48.486;7.964;2023-10-19T07:32:53;26.97;;;20.73;;
4839;SDS011;2434;48.486;7.964;2023-10-19T07:35:25;31.53;;;22.00;;
4839;SDS011;2434;48.486;7.964;2023-10-19T07:37:54;30.33;;;23.50;;
4839;SDS011;2434;48.486;7.964;2023-10-19T07:40:23;29.67;;;20.93;;
4839;SDS011;2434;48.486;7.964;2023-10-19T07:42:52;29.33;;;20.10;;
4839;SDS011;2434;48.486;7.964;2023-10-19T07:45:21;40.97;;;21.50;;
4839;SDS011;2434;48.486;7.964;2023-10-19T07:47:49;29.87;;;20.87;;
4839;SDS011;2434;48.486;7.964;2023-10-19T07:50:17;25.93;;;19.27;;
4839;SDS011;2434;48.486;7.964;2023-10-19T07:52:46;29.17;;;18.63;;
4839;SDS011;2434;48.486;7.964;2023-10-19T07:55:16;29.33;;;18.27;;
4839;SDS011;2434;48.486;7.964;2023-10-19T07:57:45;24.40;;;16.70;;
4839;SDS011;2434;48.486;7.964;2023-10-19T08:00:16;18.97;;;14.77;;
4839;SDS011;2434;48.486;7.964;2023-10-19T08:02:46;20.10;;;14.63;;
4839;SDS011;2434;48.486;7.964;2023-10-19T08:05:15;21.40;;;15.10;;
4839;SDS011;2434;48.486;7.964;2023-10-19T08:07:45;19.73;;;15.10;;
4839;SDS011;2434;48.486;7.964;2023-10-19T08:10:14;19.93;;;14.13;;
4839;SDS011;2434;48.486;7.964;2023-10-19T08:12:46;19.17;;;13.03;;
4839;SDS011;2434;48.486;7.964;2023-10-19T08:15:16;23.13;;;13.77;;
4839;SDS011;2434;48.486;7.964;2023-10-19T08:17:46;20.20;;;13.20;;
4839;SDS011;2434;48.486;7.964;2023-10-19T08:20:15;22.20;;;13.13;;
4839;SDS011;2434;48.486;7.964;2023-10-19T08:22:50;22.77;;;12.80;;
4839;SDS011;2434;48.486;7.964;2023-10-19T08:25:20;24.73;;;13.10;;
4839;SDS011;2434;48.486;7.964;2023-10-19T08:27:49;17.07;;;12.00;;
4839;SDS011;2434;48.486;7.964;2023-10-19T08:30:18;19.53;;;13.60;;
4839;SDS011;2434;48.486;7.964;2023-10-19T08:32:53;21.17;;;13.40;;
4839;SDS011;2434;48.486;7.964;2023-10-19T08:35:23;21.03;;;14.30;;
4839;SDS011;2434;48.486;7.964;2023-10-19T08:37:52;25.60;;;14.17;;
4839;SDS011;2434;48.486;7.964;2023-10-19T08:40:22;24.17;;;15.57;;
4839;SDS011;2434;48.486;7.964;2023-10-19T08:42:53;16.23;;;13.40;;
4839;SDS011;2434;48.486;7.964;2023-10-19T08:45:22;26.30;;;14.90;;
4839;SDS011;2434;48.486;7.964;2023-10-19T08:47:52;21.77;;;14.80;;
4839;SDS011;2434;48.486;7.964;2023-10-19T08:50:23;21.23;;;13.97;;
4839;SDS011;2434;48.486;7.964;2023-10-19T08:52:53;29.20;;;15.70;;
4839;SDS011;2434;48.486;7.964;2023-10-19T08:55:23;25.87;;;14.30;;
4839;SDS011;2434;48.486;7.964;2023-10-19T08:58:12;24.10;;;15.70;;
4839;SDS011;2434;48.486;7.964;2023-10-19T09:00:43;19.83;;;13.47;;
4839;SDS011;2434;48.486;7.964;2023-10-19T09:03:15;23.03;;;13.27;;
4839;SDS011;2434;48.486;7.964;2023-10-19T09:05:44;24.27;;;13.20;;
4839;SDS011;2434;48.486;7.964;2023-10-19T09:08:14;19.10;;;12.90;;
4839;SDS011;2434;48.486;7.964;2023-10-19T09:10:48;24.17;;;12.63;;
4839;SDS011;2434;48.486;7.964;2023-10-19T09:13:18;20.77;;;13.23;;
4839;SDS011;2434;48.486;7.964;2023-10-19T09:15:48;16.63;;;12.23;;
4839;SDS011;2434;48.486;7.964;2023-10-19T09:18:21;21.47;;;13.67;;
4839;SDS011;2434;48.486;7.964;2023-10-19T09:20:50;22.67;;;13.27;;
4839;SDS011;2434;48.486;7.964;2023-10-19T09:23:20;26.17;;;13.80;;
4839;SDS011;2434;48.486;7.964;2023-10-19T09:25:50;19.13;;;12.30;;
4839;SDS011;2434;48.486;7.964;2023-10-19T09:28:20;18.17;;;12.43;;
4839;SDS011;2434;48.486;7.964;2023-10-19T09:30:50;18.50;;;11.60;;
4839;SDS011;2434;48.486;7.964;2023-10-19T09:33:20;12.83;;;10.17;;
4839;SDS011;2434;48.486;7.964;2023-10-19T09:35:51;11.10;;;8.63;;
4839;SDS011;2434;48.486;7.964;2023-10-19T09:38:22;9.40;;;6.27;;
4839;SDS011;2434;48.486;7.964;2023-10-19T09:40:53;10.57;;;5.70;;
4839;SDS011;2434;48.486;7.964;2023-10-19T09:43:30;11.00;;;5.57;;
4839;SDS011;2434;48.486;7.964;2023-10-19T09:46:04;8.93;;;5.57;;
4839;SDS011;2434;48.486;7.964;2023-10-19T09:48:36;15.03;;;6.50;;
4839;SDS011;2434;48.486;7.964;2023-10-19T09:51:09;13.87;;;6.37;;
4839;SDS011;2434;48.486;7.964;2023-10-19T09:53:40;8.20;;;4.93;;
4839;SDS011;2434;48.486;7.964;2023-10-19T09:56:15;11.40;;;4.50;;
4839;SDS011;2434;48.486;7.964;2023-10-19T09:58:49;6.30;;;3.07;;
4839;SDS011;2434;48.486;7.964;2023-10-19T10:01:21;3.53;;;2.27;;
4839;SDS011;2434;48.486;7.964;2023-10-19T10:03:50;8.00;;;2.10;;
4839;SDS011;2434;48.486;7.964;2023-10-19T10:06:27;8.10;;;2.10;;
4839;SDS011;2434;48.486;7.964;2023-10-19T10:08:56;4.37;;;2.20;;
4839;SDS011;2434;48.486;7.964;2023-10-19T10:11:27;3.40;;;1.87;;
4839;SDS011;2434;48.486;7.964;2023-10-19T10:13:56;2.50;;;1.20;;
4839;SDS011;2434;48.486;7.964;2023-10-19T10:16:25;4.03;;;1.60;;
4839;SDS011;2434;48.486;7.964;2023-10-19T10:18:56;2.50;;;1.40;;
4839;SDS011;2434;48.486;7.964;2023-10-19T10:21:27;2.30;;;1.27;;
4839;SDS011;2434;48.486;7.964;2023-10-19T10:23:57;3.00;;;1.80;;
4839;SDS011;2434;48.486;7.964;2023-10-19T10:26:28;3.73;;;1.60;;
4839;SDS011;2434;48.486;7.964;2023-10-19T10:29:10;2.90;;;1.57;;
4839;SDS011;2434;48.486;7.964;2023-10-19T10:31:41;3.00;;;1.50;;
4839;SDS011;2434;48.486;7.964;2023-10-19T10:34:10;4.47;;;1.60;;
4839;SDS011;2434;48.486;7.964;2023-10-19T10:36:57;3.60;;;1.80;;
4839;SDS011;2434;48.486;7.964;2023-10-19T10:39:29;4.60;;;1.70;;
4839;SDS011;2434;48.486;7.964;2023-10-19T10:41:59;3.33;;;1.13;;
4839;SDS011;2434;48.486;7.964;2023-10-19T10:44:35;2.53;;;1.10;;
4839;SDS011;2434;48.486;7.964;2023-10-19T10:47:06;2.50;;;1.10;;
4839;SDS011;2434;48.486;7.964;2023-10-19T10:49:46;2.50;;;1.07;;
4839;SDS011;2434;48.486;7.964;2023-10-19T10:52:27;3.40;;;1.23;;
4839;SDS011;2434;48.486;7.964;2023-10-19T10:54:58;3.50;;;0.93;;
4839;SDS011;2434;48.486;7.964;2023-10-19T10:57:39;2.07;;;0.80;;
4839;SDS011;2434;48.486;7.964;2023-10-19T11:00:08;2.40;;;0.90;;
4839;SDS011;2434;48.486;7.964;2023-10-19T11:02:42;3.43;;;1.20;;
4839;SDS011;2434;48.486;7.964;2023-10-19T11:05:13;4.90;;;1.67;;
4839;SDS011;2434;48.486;7.964;2023-10-19T11:10:34;3.33;;;1.80;;
4839;SDS011;2434;48.486;7.964;2023-10-19T11:13:05;3.90;;;2.20;;
4839;SDS011;2434;48.486;7.964;2023-10-19T11:15:34;3.43;;;2.00;;
4839;SDS011;2434;48.486;7.964;2023-10-19T11:18:03;3.40;;;1.90;;
4839;SDS011;2434;48.486;7.964;2023-10-19T11:20:33;3.47;;;2.20;;
4839;SDS011;2434;48.486;7.964;2023-10-19T11:23:02;3.43;;;1.90;;
4839;SDS011;2434;48.486;7.964;2023-10-19T11:25:30;3.27;;;2.10;;
4839;SDS011;2434;48.486;7.964;2023-10-19T11:27:59;2.93;;;1.73;;
4839;SDS011;2434;48.486;7.964;2023-10-19T11:30:32;4.43;;;2.80;;
4839;SDS011;2434;48.486;7.964;2023-10-19T11:33:01;4.70;;;2.10;;
4839;SDS011;2434;48.486;7.964;2023-10-19T11:35:30;4.13;;;1.83;;
4839;SDS011;2434;48.486;7.964;2023-10-19T11:37:59;3.93;;;1.90;;
4839;SDS011;2434;48.486;7.964;2023-10-19T11:40:29;3.70;;;2.00;;
4839;SDS011;2434;48.486;7.964;2023-10-19T11:42:57;5.80;;;1.80;;
4839;SDS011;2434;48.486;7.964;2023-10-19T11:45:27;3.27;;;1.97;;
4839;SDS011;2434;48.486;7.964;2023-10-19T11:47:57;7.90;;;2.50;;
4839;SDS011;2434;48.486;7.964;2023-10-19T11:50:26;7.53;;;1.67;;
4839;SDS011;2434;48.486;7.964;2023-10-19T11:52:54;6.03;;;1.70;;
4839;SDS011;2434;48.486;7.964;2023-10-19T11:55:23;3.80;;;1.60;;
4839;SDS011;2434;48.486;7.964;2023-10-19T11:57:52;4.70;;;1.73;;
4839;SDS011;2434;48.486;7.964;2023-10-19T12:00:20;4.33;;;1.63;;
4839;SDS011;2434;48.486;7.964;2023-10-19T12:02:51;4.67;;;1.43;;
4839;SDS011;2434;48.486;7.964;2023-10-19T12:05:21;3.40;;;1.70;;
4839;SDS011;2434;48.486;7.964;2023-10-19T12:07:50;5.00;;;2.20;;
4839;SDS011;2434;48.486;7.964;2023-10-19T12:10:18;3.50;;;2.07;;
4839;SDS011;2434;48.486;7.964;2023-10-19T12:12:52;3.63;;;2.10;;
4839;SDS011;2434;48.486;7.964;2023-10-19T12:15:27;7.63;;;2.20;;
4839;SDS011;2434;48.486;7.964;2023-10-19T12:17:57;5.23;;;2.10;;
4839;SDS011;2434;48.486;7.964;2023-10-19T12:20:27;6.90;;;2.10;;
4839;SDS011;2434;48.486;7.964;2023-10-19T12:22:57;6.20;;;2.07;;
4839;SDS011;2434;48.486;7.964;2023-10-19T12:25:26;4.63;;;2.53;;
4839;SDS011;2434;48.486;7.964;2023-10-19T12:28:18;6.93;;;3.13;;
4839;SDS011;2434;48.486;7.964;2023-10-19T12:30:46;8.73;;;4.00;;
4839;SDS011;2434;48.486;7.964;2023-10-19T12:33:15;5.80;;;3.93;;
4839;SDS011;2434;48.486;7.964;2023-10-19T12:35:45;4.93;;;3.37;;
4839;SDS011;2434;48.486;7.964;2023-10-19T12:38:16;5.80;;;3.50;;
4839;SDS011;2434;48.486;7.964;2023-10-19T12:40:44;9.50;;;5.10;;
4839;SDS011;2434;48.486;7.964;2023-10-19T12:43:14;4.93;;;3.57;;
4839;SDS011;2434;48.486;7.964;2023-10-19T12:45:45;6.10;;;4.13;;
4839;SDS011;2434;48.486;7.964;2023-10-19T12:48:17;5.43;;;3.70;;
4839;SDS011;2434;48.486;7.964;2023-10-19T12:50:46;7.23;;;3.43;;
4839;SDS011;2434;48.486;7.964;2023-10-19T12:53:15;5.07;;;2.77;;
4839;SDS011;2434;48.486;7.964;2023-10-19T12:55:43;3.67;;;2.57;;
4839;SDS011;2434;48.486;7.964;2023-10-19T12:58:11;3.67;;;2.63;;
4839;SDS011;2434;48.486;7.964;2023-10-19T13:00:41;4.73;;;2.80;;
4839;SDS011;2434;48.486;7.964;2023-10-19T13:03:11;4.83;;;2.40;;
4839;SDS011;2434;48.486;7.964;2023-10-19T13:05:43;10.10;;;3.00;;
4839;SDS011;2434;48.486;7.964;2023-10-19T13:08:13;4.50;;;2.53;;
4839;SDS011;2434;48.486;7.964;2023-10-19T13:10:42;3.50;;;2.60;;
4839;SDS011;2434;48.486;7.964;2023-10-19T13:13:12;5.93;;;2.63;;
4839;SDS011;2434;48.486;7.964;2023-10-19T13:15:42;8.43;;;3.57;;
4839;SDS011;2434;48.486;7.964;2023-10-19T13:18:14;5.30;;;2.87;;
4839;SDS011;2434;48.486;7.964;2023-10-19T13:20:46;4.97;;;3.13;;
4839;SDS011;2434;48.486;7.964;2023-10-19T13:23:16;8.57;;;2.77;;
4839;SDS011;2434;48.486;7.964;2023-10-19T13:25:48;5.30;;;3.07;;
4839;SDS011;2434;48.486;7.964;2023-10-19T13:28:20;9.17;;;3.97;;
4839;SDS011;2434;48.486;7.964;2023-10-19T13:30:50;7.97;;;3.87;;
4839;SDS011;2434;48.486;7.964;2023-10-19T13:33:19;7.43;;;3.37;;
4839;SDS011;2434;48.486;7.964;2023-10-19T13:35:48;6.77;;;4.00;;
4839;SDS011;2434;48.486;7.964;2023-10-19T13:38:18;6.37;;;4.00;;
4839;SDS011;2434;48.486;7.964;2023-10-19T13:40:47;8.80;;;4.67;;
4839;SDS011;2434;48.486;7.964;2023-10-19T13:43:16;6.67;;;4.40;;
4839;SDS011;2434;48.486;7.964;2023-10-19T13:45:46;7.20;;;4.50;;
4839;SDS011;2434;48.486;7.964;2023-10-19T13:48:15;7.90;;;4.30;;
4839;SDS011;2434;48.486;7.964;2023-10-19T13:50:44;7.13;;;4.40;;
4839;SDS011;2434;48.486;7.964;2023-10-19T13:53:15;7.77;;;5.07;;
4839;SDS011;2434;48.486;7.964;2023-10-19T13:55:44;12.50;;;6.00;;
4839;SDS011;2434;48.486;7.964;2023-10-19T13:58:13;8.03;;;5.13;;
4839;SDS011;2434;48.486;7.964;2023-10-19T14:00:41;12.20;;;5.73;;
4839;SDS011;2434;48.486;7.964;2023-10-19T14:03:11;9.37;;;5.50;;
4839;SDS011;2434;48.486;7.964;2023-10-19T14:05:41;8.57;;;5.27;;
4839;SDS011;2434;48.486;7.964;2023-10-19T14:08:14;10.27;;;6.00;;
4839;SDS011;2434;48.486;7.964;2023-10-19T14:10:45;9.13;;;6.60;;
4839;SDS011;2434;48.486;7.964;2023-10-19T14:13:13;12.20;;;6.13;;
4839;SDS011;2434;48.486;7.964;2023-10-19T14:15:41;13.10;;;6.50;;
4839;SDS011;2434;48.486;7.964;2023-10-19T14:18:10;8.70;;;5.37;;
4839;SDS011;2434;48.486;7.964;2023-10-19T14:20:38;11.60;;;5.90;;
4839;SDS011;2434;48.486;7.964;2023-10-19T14:23:07;11.77;;;5.93;;
4839;SDS011;2434;48.486;7.964;2023-10-19T14:25:37;10.37;;;5.70;;
4839;SDS011;2434;48.486;7.964;2023-10-19T14:28:08;9.23;;;6.40;;
4839;SDS011;2434;48.486;7.964;2023-10-19T14:30:37;10.60;;;5.60;;
4839;SDS011;2434;48.486;7.964;2023-10-19T14:33:05;8.40;;;5.23;;
4839;SDS011;2434;48.486;7.964;2023-10-19T14:35:38;7.87;;;5.37;;
4839;SDS011;2434;48.486;7.964;2023-10-19T14:38:08;7.13;;;5.00;;
4839;SDS011;2434;48.486;7.964;2023-10-19T14:40:40;10.60;;;6.83;;
4839;SDS011;2434;48.486;7.964;2023-10-19T14:43:12;10.80;;;6.97;;
4839;SDS011;2434;48.486;7.964;2023-10-19T14:45:41;8.80;;;6.17;;
4839;SDS011;2434;48.486;7.964;2023-10-19T14:48:09;8.00;;;6.20;;
4839;SDS011;2434;48.486;7.964;2023-10-19T14:50:37;9.47;;;5.67;;
4839;SDS011;2434;48.486;7.964;2023-10-19T14:53:06;7.87;;;5.73;;
4839;SDS011;2434;48.486;7.964;2023-10-19T14:55:35;8.47;;;6.07;;
4839;SDS011;2434;48.486;7.964;2023-10-19T14:58:03;7.00;;;4.57;;
4839;SDS011;2434;48.486;7.964;2023-10-19T15:00:34;14.47;;;5.97;;
4839;SDS011;2434;48.486;7.964;2023-10-19T15:03:04;6.80;;;4.57;;
4839;SDS011;2434;48.486;7.964;2023-10-19T15:05:37;9.03;;;5.80;;
4839;SDS011;2434;48.486;7.964;2023-10-19T15:08:07;6.57;;;4.40;;
4839;SDS011;2434;48.486;7.964;2023-10-19T15:10:40;6.93;;;4.40;;
4839;SDS011;2434;48.486;7.964;2023-10-19T15:13:09;12.27;;;3.87;;
4839;SDS011;2434;48.486;7.964;2023-10-19T15:15:39;5.03;;;3.40;;
4839;SDS011;2434;48.486;7.964;2023-10-19T15:18:07;5.17;;;3.53;;
4839;SDS011;2434;48.486;7.964;2023-10-19T15:20:35;5.70;;;3.47;;
4839;SDS011;2434;48.486;7.964;2023-10-19T15:23:04;5.93;;;2.90;;